Time;durP1;ratioP1;P1;durP2;ratioP2;P2;SDS_P1;SDS_P2;PMS_P1;PMS_P2;Temp;Humidity;BMP_temperature;BMP_pressure;BME280_temperature;BME280_humidity;BME280_pressure;Samples;Min_cycle;Max_cycle;Signal;HPM_P1;HPM_P2
2023/10/19 05:07:14;;;;;;;;;50.25;41.00;;;;;;;;6125192;39;10001148;-56
2023/10/19 05:13:17;;;;;;;;;45.25;39.00;;;;;;;;6490158;39;9126;-57
2023/10/19 05:19:19;;;;;;;;;48.75;41.75;;;;;;;;6490847;39;8916;-55
2023/10/19 05:25:23;;;;;;;;;49.50;41.00;;;;;;;;6489768;31;9144;-54
2023/10/19 05:31:27;;;;;;;;;47.25;41.00;;;;;;;;6488977;47;8987;-56
2023/10/19 05:37:31;;;;;;;;;66.75;54.25;;;;;;;;6489342;39;8934;-58
2023/10/19 05:43:34;;;;;;;;;46.25;40.00;;;;;;;;6488289;31;8956;-56
2023/10/19 05:49:37;;;;;;;;;32.25;30.00;;;;;;;;6489729;39;8862;-57
2023/10/19 05:55:41;;;;;;;;;29.50;26.75;;;;;;;;6488159;39;8924;-59
2023/10/19 06:01:47;;;;;;;;;25.50;24.00;;;;;;;;6486900;39;8994;-60
2023/10/19 06:07:52;;;;;;;;;23.50;22.00;;;;;;;;6487888;39;8946;-59
2023/10/19 06:13:55;;;;;;;;;32.00;29.00;;;;;;;;6488648;39;9062;-59
2023/10/19 06:19:58;;;;;;;;;28.50;27.00;;;;;;;;6489350;39;8884;-59
2023/10/19 06:26:12;;;;;;;;;22.25;18.75;;;;;;;;6493020;46;8986;-59
2023/10/19 06:32:15;;;;;;;;;31.00;29.00;;;;;;;;6492401;31;8879;-59
2023/10/19 06:38:18;;;;;;;;;30.75;28.50;;;;;;;;6492367;46;8990;-60
2023/10/19 06:44:22;;;;;;;;;38.25;35.75;;;;;;;;6493074;31;8847;-59
2023/10/19 06:50:25;;;;;;;;;36.50;35.75;;;;;;;;6492034;31;8982;-60
2023/10/19 06:56:32;;;;;;;;;28.50;28.50;;;;;;;;6492733;31;8919;-60
2023/10/19 07:02:38;;;;;;;;;33.00;30.00;;;;;;;;6491861;39;8987;-58
2023/10/19 07:08:41;;;;;;;;;44.75;39.00;;;;;;;;6488565;39;8918;-60
2023/10/19 07:14:43;;;;;;;;;38.00;33.75;;;;;;;;6491178;31;8979;-60
2023/10/19 07:20:49;;;;;;;;;27.00;25.25;;;;;;;;6491123;46;8987;-60
2023/10/19 07:33:42;;;;;;;;;21.00;18.25;;;;;;;;6490670;46;8916;-59
2023/10/19 07:39:45;;;;;;;;;31.67;30.00;;;;;;;;6491654;39;8978;-60
2023/10/19 07:45:49;;;;;;;;;41.50;35.75;;;;;;;;6490850;46;9107;-61
2023/10/19 07:51:53;;;;;;;;;25.33;25.00;;;;;;;;6489350;39;8924;-60
2023/10/19 07:58:00;;;;;;;;;37.67;33.00;;;;;;;;6487748;39;8916;-60
2023/10/19 08:04:08;;;;;;;;;25.33;22.33;;;;;;;;6490404;39;8931;-60
2023/10/19 08:10:12;;;;;;;;;24.50;22.50;;;;;;;;6491136;39;9143;-59
2023/10/19 08:16:14;;;;;;;;;25.00;24.00;;;;;;;;6488842;39;8971;-58
2023/10/19 08:22:21;;;;;;;;;20.33;19.00;;;;;;;;6489272;39;8928;-61
2023/10/19 08:28:25;;;;;;;;;19.00;19.00;;;;;;;;6490331;39;9087;-60
2023/10/19 08:34:29;;;;;;;;;24.33;22.33;;;;;;;;6487504;39;8945;-60
2023/10/19 08:40:35;;;;;;;;;24.00;23.33;;;;;;;;6489839;39;8944;-60
2023/10/19 08:46:44;;;;;;;;;23.00;21.00;;;;;;;;6488146;31;8959;-59
2023/10/19 08:52:54;;;;;;;;;21.33;21.33;;;;;;;;6488277;46;9039;-60
2023/10/19 08:58:57;;;;;;;;;25.67;20.67;;;;;;;;6489105;31;8964;-60
2023/10/19 09:05:06;;;;;;;;;32.33;28.33;;;;;;;;6489115;31;9021;-57
2023/10/19 09:11:13;;;;;;;;;22.00;22.00;;;;;;;;6489322;47;8961;-58
2023/10/19 09:17:28;;;;;;;;;18.00;16.33;;;;;;;;6490662;31;9052;-59
2023/10/19 09:23:36;;;;;;;;;25.33;23.00;;;;;;;;6487764;31;9028;-59
2023/10/19 09:29:40;;;;;;;;;25.50;24.50;;;;;;;;6489361;39;9535;-58
2023/10/19 09:35:56;;;;;;;;;25.67;24.33;;;;;;;;6489225;31;9004;-57
2023/10/19 09:41:59;;;;;;;;;36.33;32.33;;;;;;;;6491041;31;8959;-57
2023/10/19 09:48:05;;;;;;;;;26.00;23.33;;;;;;;;6492020;39;8991;-58
2023/10/19 09:54:19;;;;;;;;;35.00;33.67;;;;;;;;6492225;39;8936;-58
2023/10/19 10:00:23;;;;;;;;;34.00;29.67;;;;;;;;6490390;39;8977;-58
2023/10/19 10:07:06;;;;;;;;;22.33;20.00;;;;;;;;6489814;31;9415;-58
2023/10/19 10:13:27;;;;;;;;;22.33;21.67;;;;;;;;6488295;39;8968;-58
2023/10/19 10:19:31;;;;;;;;;55.50;45.75;;;;;;;;6490920;39;8959;-58
2023/10/19 10:25:39;;;;;;;;;34.67;30.33;;;;;;;;6491902;39;9015;-58
2023/10/19 10:31:47;;;;;;;;;48.33;39.00;;;;;;;;6490494;46;8847;-58
2023/10/19 10:37:58;;;;;;;;;23.33;22.33;;;;;;;;6490695;46;9038;-55
2023/10/19 10:44:00;;;;;;;;;36.00;32.67;;;;;;;;6490544;46;8921;-58
2023/10/19 10:50:03;;;;;;;;;16.00;15.67;;;;;;;;6490652;39;8936;-58
2023/10/19 10:56:07;;;;;;;;;21.00;21.00;;;;;;;;6488535;31;8920;-58
2023/10/19 11:02:18;;;;;;;;;24.33;22.00;;;;;;;;6488285;31;9065;-56
2023/10/19 11:08:24;;;;;;;;;32.67;29.33;;;;;;;;6491079;39;8975;-58
2023/10/19 11:14:27;;;;;;;;;15.67;14.67;;;;;;;;6490073;46;8949;-57
2023/10/19 11:20:30;;;;;;;;;27.00;22.00;;;;;;;;6491005;46;8959;-57
2023/10/19 11:26:40;;;;;;;;;18.33;16.00;;;;;;;;6491574;46;8880;-58
2023/10/19 11:32:44;;;;;;;;;15.33;15.33;;;;;;;;6489892;31;8925;-58
2023/10/19 11:38:49;;;;;;;;;13.33;13.33;;;;;;;;6490891;39;8964;-58
2023/10/19 11:44:52;;;;;;;;;20.33;20.33;;;;;;;;6492049;39;8944;-57
2023/10/19 11:50:55;;;;;;;;;12.00;12.00;;;;;;;;6489016;31;9576;-57
2023/10/19 11:56:58;;;;;;;;;12.33;12.33;;;;;;;;6489297;39;8917;-59
2023/10/19 12:03:01;;;;;;;;;18.33;18.33;;;;;;;;6489420;46;8968;-56
2023/10/19 12:09:14;;;;;;;;;7.67;7.33;;;;;;;;6489462;39;9021;-58
2023/10/19 12:15:17;;;;;;;;;37.67;33.33;;;;;;;;6492135;39;9374;-58
2023/10/19 12:21:27;;;;;;;;;13.67;13.67;;;;;;;;6487611;39;8956;-56
2023/10/19 12:27:30;;;;;;;;;54.00;45.00;;;;;;;;6490560;39;9575;-59
2023/10/19 12:33:36;;;;;;;;;12.67;11.67;;;;;;;;6489625;39;8965;-59
2023/10/19 12:39:47;;;;;;;;;11.00;11.00;;;;;;;;6488079;39;8952;-58
2023/10/19 12:45:53;;;;;;;;;16.33;14.00;;;;;;;;6489629;39;8943;-58
2023/10/19 12:51:57;;;;;;;;;10.00;8.67;;;;;;;;6488198;39;8953;-57
2023/10/19 12:58:07;;;;;;;;;32.33;28.67;;;;;;;;6490367;39;9195;-56
2023/10/19 13:04:18;;;;;;;;;39.00;33.67;;;;;;;;6489143;46;8956;-57
2023/10/19 13:10:22;;;;;;;;;16.50;16.50;;;;;;;;6490456;31;9032;-57
2023/10/19 13:16:27;;;;;;;;;9.00;8.25;;;;;;;;6488394;46;8932;-59
2023/10/19 13:22:33;;;;;;;;;12.50;12.00;;;;;;;;6490604;31;9011;-59
2023/10/19 13:28:37;;;;;;;;;12.00;12.00;;;;;;;;6490679;39;8975;-57
2023/10/19 13:34:42;;;;;;;;;40.67;36.67;;;;;;;;6487424;46;9036;-59
2023/10/19 13:40:44;;;;;;;;;48.33;41.00;;;;;;;;6486598;47;8846;-58
2023/10/19 13:46:47;;;;;;;;;30.00;25.33;;;;;;;;6488933;47;8965;-58
2023/10/19 13:52:52;;;;;;;;;10.25;10.25;;;;;;;;6490002;39;8913;-58
2023/10/19 13:58:54;;;;;;;;;35.00;32.33;;;;;;;;6489090;47;8897;-58
2023/10/19 14:05:00;;;;;;;;;45.33;38.33;;;;;;;;6489652;47;8903;-57
2023/10/19 14:11:03;;;;;;;;;23.67;21.67;;;;;;;;6490018;47;8921;-57
2023/10/19 14:17:06;;;;;;;;;16.00;15.00;;;;;;;;6490956;31;8880;-58
2023/10/19 14:23:11;;;;;;;;;40.33;36.67;;;;;;;;6490673;31;8903;-59
2023/10/19 14:29:14;;;;;;;;;22.33;21.33;;;;;;;;6489455;31;8912;-58
2023/10/19 14:35:19;;;;;;;;;16.33;13.67;;;;;;;;6490450;39;8873;-58
2023/10/19 14:41:22;;;;;;;;;18.00;17.00;;;;;;;;6491954;46;8814;-57
2023/10/19 14:47:26;;;;;;;;;16.33;14.00;;;;;;;;6491074;39;8904;-58
2023/10/19 14:53:28;;;;;;;;;11.67;11.00;;;;;;;;6491534;46;8917;-55
2023/10/19 14:59:33;;;;;;;;;7.00;7.00;;;;;;;;6491693;46;8971;-57
2023/10/19 15:05:37;;;;;;;;;16.00;16.00;;;;;;;;6491831;39;8925;-58
2023/10/19 15:11:40;;;;;;;;;15.00;15.00;;;;;;;;6491716;46;8935;-59
2023/10/19 15:17:45;;;;;;;;;14.00;12.67;;;;;;;;6491801;39;9045;-56
2023/10/19 15:23:49;;;;;;;;;14.00;12.67;;;;;;;;6490971;39;10030;-57
2023/10/19 15:29:52;;;;;;;;;19.67;16.00;;;;;;;;6490898;39;8866;-58
2023/10/19 15:35:55;;;;;;;;;30.33;24.00;;;;;;;;6490372;46;8888;-58
2023/10/19 15:41:58;;;;;;;;;19.33;19.33;;;;;;;;6491279;39;9095;-57
2023/10/19 15:48:01;;;;;;;;;21.00;19.33;;;;;;;;6491672;39;8897;-56
2023/10/19 15:54:05;;;;;;;;;22.33;22.33;;;;;;;;6490925;39;8927;-57
2023/10/19 16:00:13;;;;;;;;;34.33;29.67;;;;;;;;6491440;46;9020;-58
2023/10/19 16:06:16;;;;;;;;;20.00;18.50;;;;;;;;6490712;46;8868;-56
2023/10/19 16:12:20;;;;;;;;;20.67;18.67;;;;;;;;6490764;46;9052;-58
2023/10/19 16:18:23;;;;;;;;;55.25;46.75;;;;;;;;6490497;39;8841;-56
2023/10/19 16:24:29;;;;;;;;;50.00;41.00;;;;;;;;6490985;31;8865;-58
2023/10/19 16:30:36;;;;;;;;;27.00;26.67;;;;;;;;6490876;39;8868;-55
2023/10/19 16:36:39;;;;;;;;;28.33;25.67;;;;;;;;6490186;39;9001;-57
2023/10/19 16:42:41;;;;;;;;;24.00;23.00;;;;;;;;6490601;46;8904;-58
2023/10/19 16:48:44;;;;;;;;;24.33;24.33;;;;;;;;6491108;39;8896;-56
2023/10/19 16:54:46;;;;;;;;;24.67;23.00;;;;;;;;6490939;39;8865;-59
2023/10/19 17:00:50;;;;;;;;;26.00;23.00;;;;;;;;6491502;39;8940;-59
2023/10/19 17:06:53;;;;;;;;;25.67;24.33;;;;;;;;6488970;31;8852;-57
2023/10/19 17:12:55;;;;;;;;;32.00;30.33;;;;;;;;6491502;39;8931;-57
2023/10/19 17:18:58;;;;;;;;;25.33;23.67;;;;;;;;6490645;47;8857;-56
2023/10/19 17:25:00;;;;;;;;;46.25;38.75;;;;;;;;6490448;47;8951;-57
2023/10/19 17:31:05;;;;;;;;;23.33;21.67;;;;;;;;6490898;39;8898;-55
2023/10/19 17:37:10;;;;;;;;;29.33;27.00;;;;;;;;6490730;39;8817;-55
2023/10/19 17:43:14;;;;;;;;;30.67;29.67;;;;;;;;6491564;39;9045;-56
2023/10/19 17:49:17;;;;;;;;;38.00;30.00;;;;;;;;6490027;39;8885;-56
2023/10/19 17:55:20;;;;;;;;;32.33;29.33;;;;;;;;6490076;39;8869;-57
2023/10/19 18:01:22;;;;;;;;;27.67;26.00;;;;;;;;6490394;47;8908;-56
2023/10/19 18:07:26;;;;;;;;;36.67;34.00;;;;;;;;6490047;46;8873;-57
2023/10/19 18:13:30;;;;;;;;;35.50;34.00;;;;;;;;6493037;39;8904;-54
2023/10/19 18:19:33;;;;;;;;;34.00;30.67;;;;;;;;6490919;46;8889;-57
2023/10/19 18:25:41;;;;;;;;;36.00;34.25;;;;;;;;6492680;39;8868;-56
2023/10/19 18:31:44;;;;;;;;;35.00;34.25;;;;;;;;6492772;39;8841;-56
2023/10/19 18:37:50;;;;;;;;;44.25;38.50;;;;;;;;6490898;39;8915;-57
2023/10/19 18:43:53;;;;;;;;;38.67;35.67;;;;;;;;6492775;46;8857;-56
2023/10/19 18:49:57;;;;;;;;;43.00;36.00;;;;;;;;6492649;39;8849;-56
2023/10/19 18:56:00;;;;;;;;;42.50;34.00;;;;;;;;6492249;46;8880;-57
2023/10/19 19:02:05;;;;;;;;;37.00;35.00;;;;;;;;6492025;39;9549;-58
2023/10/19 19:08:08;;;;;;;;;37.75;33.00;;;;;;;;6492468;39;8918;-56
2023/10/19 19:14:11;;;;;;;;;31.00;30.00;;;;;;;;6492276;39;9562;-56
2023/10/19 19:20:20;;;;;;;;;35.25;33.00;;;;;;;;6491173;46;9003;-57
2023/10/19 19:26:25;;;;;;;;;40.00;36.50;;;;;;;;6401259;39;5002296;-56
2023/10/19 19:32:27;;;;;;;;;42.25;37.25;;;;;;;;6490962;39;12282;-57
2023/10/19 19:38:30;;;;;;;;;51.00;41.00;;;;;;;;6491041;39;8940;-56
2023/10/19 19:44:33;;;;;;;;;45.50;39.00;;;;;;;;6491466;39;8861;-57
2023/10/19 19:50:35;;;;;;;;;37.00;34.00;;;;;;;;6491933;31;8880;-56
2023/10/19 19:56:38;;;;;;;;;51.75;42.25;;;;;;;;6491979;39;8880;-54
2023/10/19 20:02:41;;;;;;;;;47.80;40.20;;;;;;;;6412337;31;5001452;-55
2023/10/19 20:08:43;;;;;;;;;49.50;40.00;;;;;;;;6491911;31;8998;-56
2023/10/19 20:14:45;;;;;;;;;50.50;39.00;;;;;;;;6492023;39;8908;-56
2023/10/19 20:20:49;;;;;;;;;43.75;38.75;;;;;;;;6491347;46;8852;-58
2023/10/19 20:26:51;;;;;;;;;52.00;41.75;;;;;;;;6491527;39;8862;-56
2023/10/19 20:32:55;;;;;;;;;38.00;35.75;;;;;;;;6491120;39;8915;-56
2023/10/19 20:39:00;;;;;;;;;49.67;42.00;;;;;;;;6491255;39;9468;-57
2023/10/19 20:45:03;;;;;;;;;51.50;43.75;;;;;;;;6490201;31;8920;-58
2023/10/19 20:51:17;;;;;;;;;44.25;39.50;;;;;;;;6490784;46;8983;-56
2023/10/19 20:57:19;;;;;;;;;52.25;43.00;;;;;;;;6490250;39;9041;-57
2023/10/19 21:03:22;;;;;;;;;51.00;43.50;;;;;;;;6491288;39;8903;-57
2023/10/19 21:09:26;;;;;;;;;45.25;40.00;;;;;;;;6490257;31;8879;-55
2023/10/19 21:15:29;;;;;;;;;44.50;37.75;;;;;;;;6490889;39;8973;-57
2023/10/19 21:21:33;;;;;;;;;53.25;44.00;;;;;;;;6489757;39;8908;-57
2023/10/19 21:27:36;;;;;;;;;46.50;39.00;;;;;;;;6490541;39;8877;-56
2023/10/19 21:33:38;;;;;;;;;51.50;40.75;;;;;;;;6490079;47;8910;-56
2023/10/19 21:39:41;;;;;;;;;48.50;38.00;;;;;;;;6489584;47;8883;-56
2023/10/19 21:45:43;;;;;;;;;45.50;38.00;;;;;;;;6538164;36;9006;-56
2023/10/19 21:51:47;;;;;;;;;44.25;36.25;;;;;;;;6492349;31;8914;-55
2023/10/19 21:57:50;;;;;;;;;47.50;40.50;;;;;;;;6492639;46;9026;-56
2023/10/19 22:03:52;;;;;;;;;43.25;38.00;;;;;;;;6492512;39;8904;-57
2023/10/19 22:09:55;;;;;;;;;50.33;42.00;;;;;;;;6492660;39;8918;-55
2023/10/19 22:15:57;;;;;;;;;48.00;40.50;;;;;;;;6491793;39;9036;-56
2023/10/19 22:22:03;;;;;;;;;55.75;44.25;;;;;;;;6492088;39;8899;-56
2023/10/19 22:28:06;;;;;;;;;48.25;41.00;;;;;;;;6492026;39;8876;-56
2023/10/19 22:34:10;;;;;;;;;45.00;39.00;;;;;;;;6491222;46;8868;-55
2023/10/19 22:40:14;;;;;;;;;46.75;37.75;;;;;;;;6491640;39;8930;-55
2023/10/19 22:46:16;;;;;;;;;55.25;42.75;;;;;;;;6492389;31;8943;-57
2023/10/19 22:52:20;;;;;;;;;48.50;39.25;;;;;;;;6492081;39;8847;-57
2023/10/19 22:58:23;;;;;;;;;48.00;39.50;;;;;;;;6491668;39;8937;-56
2023/10/19 23:04:26;;;;;;;;;53.25;44.50;;;;;;;;6490123;46;8844;-55
2023/10/19 23:10:29;;;;;;;;;48.00;39.00;;;;;;;;6492188;39;8915;-56
2023/10/19 23:16:35;;;;;;;;;49.50;40.50;;;;;;;;6491987;46;8856;-54
2023/10/19 23:22:39;;;;;;;;;41.25;38.50;;;;;;;;6491836;39;8916;-55
2023/10/19 23:28:41;;;;;;;;;53.25;41.75;;;;;;;;6492244;39;8910;-55
2023/10/19 23:34:47;;;;;;;;;52.00;42.50;;;;;;;;6491939;31;9761;-55
2023/10/19 23:40:52;;;;;;;;;53.00;43.00;;;;;;;;6491314;39;8955;-55
2023/10/19 23:46:56;;;;;;;;;49.75;42.50;;;;;;;;6491311;31;8839;-55
2023/10/19 23:52:59;;;;;;;;;46.25;40.50;;;;;;;;6490786;39;8864;-55
2023/10/19 23:59:02;;;;;;;;;55.25;46.25;;;;;;;;6490330;46;8958;-56
